Time;durP1;ratioP1;P1;durP2;ratioP2;P2;SDS_P1;SDS_P2;PMS_P1;PMS_P2;Temp;Humidity;BMP_temperature;BMP_pressure;BME280_temperature;BME280_humidity;BME280_pressure;Samples;Min_cycle;Max_cycle;Signal;HPM_P1;HPM_P2
2023/05/24 00:02:22;;;;;;;;;;;;;;;16.57;71.85;92744.72;2048181;70;20194;-75
2023/05/24 00:04:48;;;;;;;;;;;;;;;16.58;71.30;92746.91;2048225;70;20058;-75
2023/05/24 00:07:15;;;;;;;;;;;;;;;16.57;71.21;92745.47;2048114;70;20051;-74
2023/05/24 00:09:41;;;;;;;;;;;;;;;16.59;71.19;92747.66;2048267;70;20142;-75
2023/05/24 00:12:07;;;;;;;;;;;;;;;16.53;71.82;92740.34;2048057;70;20125;-75
2023/05/24 00:14:37;;;;;;;;;;;;;;;16.61;71.23;92739.22;2048104;70;20058;-75
2023/05/24 00:17:02;;;;;;;;;;;;;;;16.55;71.64;92739.72;2048017;70;20051;-75
2023/05/24 00:19:28;;;;;;;;;;;;;;;16.52;71.16;92741.72;2047501;70;20051;-75
2023/05/24 00:21:54;;;;;;;;;;;;;;;16.59;70.82;92747.66;2047900;70;20054;-75
2023/05/24 00:24:19;;;;;;;;;;;;;;;16.60;70.70;92746.28;2047531;70;20047;-75
2023/05/24 00:26:45;;;;;;;;;;;;;;;16.50;72.40;92738.09;2047584;70;20067;-75
2023/05/24 00:29:10;;;;;;;;;;;;;;;16.41;72.18;92748.41;2048052;70;20050;-74
2023/05/24 00:31:37;;;;;;;;;;;;;;;16.33;73.00;92739.53;2047531;70;20059;-75
2023/05/24 00:34:02;;;;;;;;;;;;;;;16.43;72.36;92737.09;2048146;70;20388;-75
2023/05/24 00:36:28;;;;;;;;;;;;;;;16.55;71.09;92739.72;2047549;70;20058;-75
2023/05/24 00:38:54;;;;;;;;;;;;;;;16.49;72.28;92728.84;2047396;70;20055;-75
2023/05/24 00:41:20;;;;;;;;;;;;;;;16.52;72.08;92738.88;2048204;70;20091;-75
2023/05/24 00:43:45;;;;;;;;;;;;;;;16.51;71.58;92739.53;2047806;70;20530;-74
2023/05/24 00:46:14;;;;;;;;;;;;;;;16.46;72.37;92738.66;2047987;70;20053;-75
2023/05/24 00:48:40;;;;;;;;;;;;;;;16.53;71.94;92740.34;2047327;70;20051;-73
2023/05/24 00:51:05;;;;;;;;;;;;;;;16.52;72.60;92736.03;2047415;70;20079;-72
2023/05/24 00:53:32;;;;;;;;;;;;;;;16.46;72.60;92732.97;2047961;70;20057;-73
2023/05/24 00:55:58;;;;;;;;;;;;;;;16.53;72.15;92731.09;2047452;70;20511;-74
2023/05/24 00:58:29;;;;;;;;;;;;;;;16.47;72.85;92725.19;2047711;70;20090;-73
2023/05/24 01:00:58;;;;;;;;;;;;;;;16.54;71.77;92721.22;2047433;70;20055;-74
2023/05/24 01:03:24;;;;;;;;;;;;;;;16.51;72.15;92722.50;2044907;70;20051;-73
2023/05/24 01:05:50;;;;;;;;;;;;;;;16.46;72.30;92721.59;2047406;70;20076;-74
2023/05/24 01:08:37;;;;;;;;;;;;;;;16.39;72.08;92722.00;2048117;70;20078;-74
2023/05/24 01:11:08;;;;;;;;;;;;;;;16.45;72.14;92723.00;2047314;70;20523;-75
2023/05/24 01:13:52;;;;;;;;;;;;;;;16.41;72.06;92725.69;2047999;70;20051;-74
2023/05/24 01:16:21;;;;;;;;;;;;;;;16.45;71.17;92719.44;2047974;70;20063;-75
2023/05/24 01:18:51;;;;;;;;;;;;;;;16.43;72.09;92725.75;2047473;70;20047;-74
2023/05/24 01:21:37;;;;;;;;;;;;;;;16.29;73.16;92722.34;2047645;70;20051;-74
2023/05/24 01:24:24;;;;;;;;;;;;;;;16.29;72.57;92716.66;2047971;70;20062;-73
2023/05/24 01:27:06;;;;;;;;;;;;;;;16.30;72.39;92718.13;2047342;70;20077;-74
2023/05/24 01:29:34;;;;;;;;;;;;;;;16.32;72.49;92726.00;2048023;70;20055;-74
2023/05/24 01:31:59;;;;;;;;;;;;;;;16.37;71.22;92724.78;2047470;70;20055;-75
2023/05/24 01:34:26;;;;;;;;;;;;;;;16.35;72.27;92728.25;2047548;70;20078;-75
2023/05/24 01:36:51;;;;;;;;;;;;;;;16.29;73.32;92735.81;2047450;70;20432;-73
2023/05/24 01:39:20;;;;;;;;;;;;;;;16.32;72.88;92731.69;2047390;70;20062;-73
2023/05/24 01:41:55;;;;;;;;;;;;;;;16.29;72.89;92730.13;2047410;70;20075;-74
2023/05/24 01:44:35;;;;;;;;;;;;;;;16.30;72.65;92726.63;2047937;70;20087;-75
2023/05/24 01:47:18;;;;;;;;;;;;;;;16.32;72.59;92732.41;2047580;70;20115;-73
2023/05/24 01:49:48;;;;;;;;;;;;;;;16.31;72.93;92728.13;2048172;70;20422;-74
2023/05/24 01:52:16;;;;;;;;;;;;;;;16.29;73.42;92732.97;2047979;70;20058;-73
2023/05/24 01:54:43;;;;;;;;;;;;;;;16.37;72.50;92724.78;2047892;70;20206;-73
2023/05/24 01:57:09;;;;;;;;;;;;;;;16.36;72.84;92726.91;2047218;70;20051;-75
2023/05/24 01:59:38;;;;;;;;;;;;;;;16.28;73.28;92720.88;2047591;70;20051;-74
2023/05/24 02:02:04;;;;;;;;;;;;;;;16.29;73.17;92724.44;2048008;70;20058;-74
2023/05/24 02:04:30;;;;;;;;;;;;;;;16.31;73.30;92721.69;2047352;70;20070;-74
2023/05/24 02:06:55;;;;;;;;;;;;;;;16.38;71.59;92723.41;2048126;70;20075;-74
2023/05/24 02:09:21;;;;;;;;;;;;;;;16.36;73.23;92724.06;2047531;70;20051;-74
2023/05/24 02:11:48;;;;;;;;;;;;;;;16.34;73.24;92720.38;2044620;70;20059;-74
2023/05/24 02:14:13;;;;;;;;;;;;;;;16.35;73.21;92722.56;2047897;70;20054;-74
2023/05/24 02:16:41;;;;;;;;;;;;;;;16.32;73.72;92726.72;2047338;70;20150;-73
2023/05/24 02:19:07;;;;;;;;;;;;;;;16.28;74.39;92723.72;2047896;70;20058;-74
2023/05/24 02:21:33;;;;;;;;;;;;;;;16.38;71.83;92715.59;2047890;70;20113;-73
2023/05/24 02:23:59;;;;;;;;;;;;;;;16.39;73.13;92722.72;2044496;70;20139;-74
2023/05/24 02:26:24;;;;;;;;;;;;;;;16.37;73.79;92711.31;2047801;70;20047;-74
2023/05/24 02:28:50;;;;;;;;;;;;;;;16.40;73.68;92709.25;2047860;70;20087;-74
2023/05/24 02:31:15;;;;;;;;;;;;;;;16.44;73.13;92700.91;2047907;70;20122;-74
2023/05/24 02:33:42;;;;;;;;;;;;;;;16.38;74.47;92700.66;2047472;70;20512;-74
2023/05/24 02:36:08;;;;;;;;;;;;;;;16.44;72.89;92695.22;2047985;70;20515;-73
2023/05/24 02:38:34;;;;;;;;;;;;;;;16.43;73.08;92700.16;2047273;70;20146;-74
2023/05/24 02:40:59;;;;;;;;;;;;;;;16.40;73.70;92703.56;2047419;70;20143;-74
2023/05/24 02:43:25;;;;;;;;;;;;;;;16.44;72.64;92693.09;2047698;70;20142;-75
2023/05/24 02:45:50;;;;;;;;;;;;;;;16.41;73.56;92696.53;2047691;70;20165;-75
2023/05/24 02:48:16;;;;;;;;;;;;;;;16.44;72.41;92695.22;2044595;70;20110;-74
2023/05/24 02:50:41;;;;;;;;;;;;;;;16.36;73.22;92694.91;2047425;70;20517;-74
2023/05/24 02:53:12;;;;;;;;;;;;;;;16.35;74.00;92694.16;2049337;70;20077;-74
2023/05/24 02:55:39;;;;;;;;;;;;;;;16.41;73.90;92691.59;2052214;70;20081;-75
2023/05/24 02:58:05;;;;;;;;;;;;;;;16.46;73.48;92693.19;2047381;70;20043;-74
2023/05/24 03:00:32;;;;;;;;;;;;;;;16.47;73.73;92679.72;2047653;70;20503;-75
2023/05/24 03:03:01;;;;;;;;;;;;;;;16.35;73.57;92685.66;2046856;70;20138;-75
2023/05/24 03:05:26;;;;;;;;;;;;;;;16.47;71.60;92679.72;2047755;70;20051;-74
2023/05/24 03:07:52;;;;;;;;;;;;;;;16.26;72.88;92683.88;2047721;70;20066;-74
2023/05/24 03:10:18;;;;;;;;;;;;;;;16.09;75.47;92684.63;2047773;70;20435;-74
2023/05/24 03:12:44;;;;;;;;;;;;;;;16.15;73.01;92679.91;2047539;70;20451;-75
2023/05/24 03:15:09;;;;;;;;;;;;;;;16.22;74.42;92673.09;2047739;70;20484;-74
2023/05/24 03:17:34;;;;;;;;;;;;;;;16.13;73.66;92676.25;2047606;70;20047;-75
2023/05/24 03:20:00;;;;;;;;;;;;;;;15.77;76.19;92676.25;2047666;70;20110;-75
2023/05/24 03:22:29;;;;;;;;;;;;;;;16.15;74.74;92674.22;2047289;70;20126;-75
2023/05/24 03:24:55;;;;;;;;;;;;;;;16.19;74.26;92676.50;2047792;70;20118;-74
2023/05/24 03:27:20;;;;;;;;;;;;;;;16.12;74.18;92677.63;2047637;70;20519;-74
2023/05/24 03:29:46;;;;;;;;;;;;;;;16.18;74.62;92672.94;2046762;70;20078;-75
2023/05/24 03:32:12;;;;;;;;;;;;;;;16.22;73.09;92678.03;2047751;70;20074;-74
2023/05/24 03:34:38;;;;;;;;;;;;;;;16.24;73.44;92672.44;2047720;70;20047;-75
2023/05/24 03:37:04;;;;;;;;;;;;;;;16.31;73.52;92671.31;2047822;70;20106;-75
2023/05/24 03:39:32;;;;;;;;;;;;;;;16.31;73.58;92673.38;2048124;70;20082;-75
2023/05/24 03:42:30;;;;;;;;;;;;;;;16.27;73.71;92679.66;2043689;70;20270;-73
2023/05/24 03:44:56;;;;;;;;;;;;;;;16.23;73.41;92683.06;2047741;70;20135;-75
2023/05/24 03:47:21;;;;;;;;;;;;;;;16.25;73.73;92674.63;2048286;70;20476;-75
2023/05/24 03:49:48;;;;;;;;;;;;;;;16.25;72.84;92685.25;2047850;70;20058;-75
2023/05/24 03:52:13;;;;;;;;;;;;;;;16.30;73.30;92686.13;2047923;70;20058;-75
2023/05/24 03:54:39;;;;;;;;;;;;;;;16.35;73.20;92690.59;2048328;70;20043;-76
2023/05/24 03:57:04;;;;;;;;;;;;;;;16.32;73.43;92691.91;2047905;70;20142;-75
2023/05/24 03:59:30;;;;;;;;;;;;;;;16.35;73.59;92691.31;2047741;70;20138;-75
2023/05/24 04:01:55;;;;;;;;;;;;;;;16.27;73.65;92688.91;2047843;70;20173;-75
2023/05/24 04:04:21;;;;;;;;;;;;;;;16.28;73.50;92692.47;2045083;70;20057;-75
2023/05/24 04:06:48;;;;;;;;;;;;;;;16.21;73.12;92680.13;2047786;70;20091;-75
2023/05/24 04:09:14;;;;;;;;;;;;;;;15.80;75.20;92691.97;2047828;70;20076;-74
2023/05/24 04:11:40;;;;;;;;;;;;;;;15.79;75.87;92692.63;2045062;70;20051;-75
2023/05/24 04:14:06;;;;;;;;;;;;;;;15.60;76.81;92693.94;2048169;70;20110;-75
2023/05/24 04:16:33;;;;;;;;;;;;;;;15.49;77.31;92689.94;2047793;70;20142;-75
2023/05/24 04:19:00;;;;;;;;;;;;;;;15.76;75.86;92691.81;2047759;70;20384;-75
2023/05/24 04:21:27;;;;;;;;;;;;;;;15.90;75.45;92700.19;2047762;70;20515;-75
2023/05/24 04:23:54;;;;;;;;;;;;;;;15.79;73.68;92696.19;2047719;70;20210;-75
2023/05/24 04:26:21;;;;;;;;;;;;;;;15.83;74.50;92696.34;2047733;70;20043;-75
2023/05/24 04:28:47;;;;;;;;;;;;;;;15.89;74.87;92705.09;2047622;70;20083;-75
2023/05/24 04:31:14;;;;;;;;;;;;;;;15.89;74.90;92696.59;2047735;70;20055;-75
2023/05/24 04:33:41;;;;;;;;;;;;;;;16.02;74.47;92690.03;2047810;70;20088;-75
2023/05/24 04:36:07;;;;;;;;;;;;;;;16.05;73.60;92690.13;2047762;70;20070;-75
2023/05/24 04:38:33;;;;;;;;;;;;;;;15.70;74.98;92691.53;2047723;70;20062;-75
2023/05/24 04:40:59;;;;;;;;;;;;;;;15.86;75.03;92692.22;2047786;70;20426;-75
2023/05/24 04:43:27;;;;;;;;;;;;;;;16.01;73.97;92688.56;2048209;70;20051;-75
2023/05/24 04:45:54;;;;;;;;;;;;;;;16.07;74.07;92695.88;2048130;70;20047;-75
2023/05/24 04:48:23;;;;;;;;;;;;;;;16.07;73.63;92690.19;2048193;70;20055;-75
2023/05/24 04:50:50;;;;;;;;;;;;;;;16.14;73.23;92691.91;2048278;70;20096;-75
2023/05/24 04:53:16;;;;;;;;;;;;;;;16.05;73.26;92690.84;2047880;70;20075;-75
2023/05/24 04:55:41;;;;;;;;;;;;;;;15.99;73.88;92690.63;2048350;70;20392;-75
2023/05/24 04:58:07;;;;;;;;;;;;;;;15.03;79.71;92697.13;2048203;70;20083;-75
2023/05/24 05:00:32;;;;;;;;;;;;;;;15.77;75.48;92698.94;2047950;70;20483;-75
2023/05/24 05:02:58;;;;;;;;;;;;;;;15.83;75.92;92695.63;2048231;70;20051;-75
2023/05/24 05:05:23;;;;;;;;;;;;;;;15.79;76.26;92699.00;2048234;70;20118;-75
2023/05/24 05:07:48;;;;;;;;;;;;;;;15.89;75.36;92698.69;2048197;70;20141;-74
2023/05/24 05:10:14;;;;;;;;;;;;;;;15.81;75.40;92696.28;2048282;70;20594;-75
2023/05/24 05:12:41;;;;;;;;;;;;;;;16.01;74.56;92690.69;2047606;70;20081;-75
2023/05/24 05:15:08;;;;;;;;;;;;;;;16.03;74.35;92696.44;2048302;70;20161;-75
2023/05/24 05:17:33;;;;;;;;;;;;;;;16.07;72.58;92699.44;2047771;70;20055;-75
2023/05/24 05:19:59;;;;;;;;;;;;;;;16.01;73.90;92699.22;2047726;70;20523;-74
2023/05/24 05:22:24;;;;;;;;;;;;;;;16.02;73.85;92704.22;2048238;70;20061;-75
2023/05/24 05:24:50;;;;;;;;;;;;;;;16.01;73.58;92707.72;2048304;70;20050;-75
2023/05/24 05:27:16;;;;;;;;;;;;;;;15.29;77.42;92701.13;2048201;70;20212;-75
2023/05/24 05:29:42;;;;;;;;;;;;;;;15.67;76.22;92698.53;2048275;70;20047;-75
2023/05/24 05:32:08;;;;;;;;;;;;;;;15.62;76.27;92699.69;2047696;70;20054;-75
2023/05/24 05:34:34;;;;;;;;;;;;;;;15.70;75.71;92697.22;2048180;70;20063;-75
2023/05/24 05:36:59;;;;;;;;;;;;;;;15.77;75.89;92690.44;2048151;70;20047;-75
2023/05/24 05:39:25;;;;;;;;;;;;;;;15.95;74.61;92699.69;2047938;70;20055;-75
2023/05/24 05:41:51;;;;;;;;;;;;;;;15.93;74.23;92693.91;2048204;70;20054;-75
2023/05/24 05:44:16;;;;;;;;;;;;;;;16.03;72.78;92687.91;2048082;70;20066;-75
2023/05/24 05:46:44;;;;;;;;;;;;;;;15.86;74.69;92688.66;2048147;70;20476;-75
2023/05/24 05:49:11;;;;;;;;;;;;;;;15.93;74.33;92693.19;2048120;70;20114;-75
2023/05/24 05:51:37;;;;;;;;;;;;;;;16.11;72.94;92693.22;2048106;70;20140;-75
2023/05/24 05:54:03;;;;;;;;;;;;;;;16.06;73.46;92685.91;2048142;70;20499;-75
2023/05/24 05:56:29;;;;;;;;;;;;;;;16.05;74.55;92687.28;2048209;70;20058;-75
2023/05/24 05:58:54;;;;;;;;;;;;;;;16.10;73.04;92686.06;2048049;70;20043;-75
2023/05/24 06:01:20;;;;;;;;;;;;;;;16.09;73.58;92685.34;2048128;70;20059;-75
2023/05/24 06:03:45;;;;;;;;;;;;;;;15.92;73.76;92692.47;2048124;70;20117;-75
2023/05/24 06:06:11;;;;;;;;;;;;;;;15.87;74.22;92688.00;2048077;70;20453;-75
2023/05/24 06:08:39;;;;;;;;;;;;;;;15.74;73.96;92689.59;2047744;70;20155;-75
2023/05/24 06:11:05;;;;;;;;;;;;;;;15.94;74.16;92689.72;2048047;70;20126;-75
2023/05/24 06:13:31;;;;;;;;;;;;;;;16.06;74.10;92689.47;2048072;70;20051;-75
2023/05/24 06:15:57;;;;;;;;;;;;;;;15.40;76.31;92697.38;2048176;70;20145;-75
2023/05/24 06:18:23;;;;;;;;;;;;;;;15.47;76.52;92695.53;2048163;70;20047;-75
2023/05/24 06:20:48;;;;;;;;;;;;;;;15.79;76.28;92692.63;2048229;70;20051;-75
2023/05/24 06:23:14;;;;;;;;;;;;;;;15.83;75.64;92689.94;2047668;70;20047;-75
2023/05/24 06:25:42;;;;;;;;;;;;;;;15.88;75.69;92692.28;2047515;70;20099;-75
2023/05/24 06:28:08;;;;;;;;;;;;;;;16.00;74.88;92680.72;2047940;70;20421;-75
2023/05/24 06:30:33;;;;;;;;;;;;;;;16.09;72.86;92685.34;2047502;70;20054;-75
2023/05/24 06:32:59;;;;;;;;;;;;;;;16.01;74.61;92691.41;2047945;70;20120;-75
2023/05/24 06:35:25;;;;;;;;;;;;;;;16.12;73.74;92689.72;2047947;70;20143;-75
2023/05/24 06:37:50;;;;;;;;;;;;;;;15.60;76.88;92691.81;2047881;70;20150;-76
2023/05/24 06:40:17;;;;;;;;;;;;;;;15.82;76.20;92686.38;2048027;70;20488;-76
2023/05/24 06:42:42;;;;;;;;;;;;;;;16.07;75.01;92687.38;2047929;70;20122;-76
2023/05/24 06:45:09;;;;;;;;;;;;;;;16.06;74.88;92689.47;2048054;70;20055;-76
2023/05/24 06:47:35;;;;;;;;;;;;;;;15.79;76.40;92693.34;2047570;70;20059;-76
2023/05/24 06:50:02;;;;;;;;;;;;;;;15.58;77.45;92686.06;2047982;70;20417;-76
2023/05/24 06:52:28;;;;;;;;;;;;;;;15.62;77.38;92688.34;2048278;70;20059;-76
2023/05/24 06:54:53;;;;;;;;;;;;;;;15.90;76.28;92688.81;2047922;70;20146;-76
2023/05/24 06:57:19;;;;;;;;;;;;;;;15.70;77.36;92692.28;2047832;70;20049;-76
2023/05/24 06:59:44;;;;;;;;;;;;;;;15.61;77.69;92690.44;2048508;70;20043;-76
2023/05/24 07:02:10;;;;;;;;;;;;;;;15.72;77.03;92692.38;2048500;70;20563;-76
2023/05/24 07:04:36;;;;;;;;;;;;;;;15.99;74.92;92685.66;2047880;70;20078;-77
2023/05/24 07:07:01;;;;;;;;;;;;;;;15.82;77.18;92694.16;2048429;70;20122;-76
2023/05/24 07:09:27;;;;;;;;;;;;;;;15.52;76.05;92697.88;2048401;70;20414;-76
2023/05/24 07:11:53;;;;;;;;;;;;;;;15.81;76.01;92690.59;2048433;70;20118;-76
2023/05/24 07:14:18;;;;;;;;;;;;;;;15.60;75.86;92700.34;2048486;70;20142;-77
2023/05/24 07:16:43;;;;;;;;;;;;;;;15.60;76.01;92699.59;2047917;70;20047;-77
2023/05/24 07:19:09;;;;;;;;;;;;;;;15.97;73.77;92702.59;2047960;70;20217;-77
2023/05/24 07:21:34;;;;;;;;;;;;;;;15.51;75.45;92704.94;2048504;70;20043;-77
2023/05/24 07:24:00;;;;;;;;;;;;;;;15.78;74.98;92697.56;2047838;70;20074;-77
2023/05/24 07:26:26;;;;;;;;;;;;;;;15.36;76.68;92705.72;2048346;70;20435;-77
2023/05/24 07:28:52;;;;;;;;;;;;;;;15.21;78.81;92704.38;2047725;70;20471;-76
2023/05/24 07:31:18;;;;;;;;;;;;;;;15.70;75.95;92706.47;2047859;70;20047;-77
2023/05/24 07:33:45;;;;;;;;;;;;;;;15.79;75.45;92712.47;2048483;70;20046;-77
2023/05/24 07:36:10;;;;;;;;;;;;;;;15.85;74.87;92715.56;2048374;70;20050;-76
2023/05/24 07:38:37;;;;;;;;;;;;;;;15.72;75.55;92714.34;2048264;70;20254;-76
2023/05/24 07:41:05;;;;;;;;;;;;;;;15.71;75.53;92707.94;2048453;70;20086;-77
2023/05/24 07:43:31;;;;;;;;;;;;;;;15.95;74.62;92718.84;2048248;70;20131;-76
2023/05/24 07:45:56;;;;;;;;;;;;;;;16.06;73.55;92708.63;2048561;70;20158;-77
2023/05/24 07:48:22;;;;;;;;;;;;;;;15.98;75.11;92704.06;2048583;70;20051;-76
2023/05/24 07:50:49;;;;;;;;;;;;;;;16.02;74.74;92706.34;2048406;70;20047;-76
2023/05/24 07:53:14;;;;;;;;;;;;;;;15.88;74.93;92700.09;2048353;70;20090;-77
2023/05/24 07:55:40;;;;;;;;;;;;;;;15.97;73.99;92702.59;2048476;70;20094;-77
2023/05/24 07:58:05;;;;;;;;;;;;;;;16.13;73.58;92699.72;2048326;70;20558;-77
2023/05/24 08:00:32;;;;;;;;;;;;;;;15.10;78.02;92707.38;2048539;70;20113;-76
2023/05/24 08:02:58;;;;;;;;;;;;;;;15.71;76.80;92698.69;2048346;70;20051;-76
2023/05/24 08:05:24;;;;;;;;;;;;;;;15.96;75.63;92701.16;2048416;70;20154;-76
2023/05/24 08:07:50;;;;;;;;;;;;;;;15.93;75.44;92693.91;2048406;70;20496;-76
2023/05/24 08:10:16;;;;;;;;;;;;;;;15.48;75.53;92694.88;2048495;70;20047;-79
2023/05/24 08:12:41;;;;;;;;;;;;;;;15.05;80.42;92697.25;2048268;70;20058;-77
2023/05/24 08:15:07;;;;;;;;;;;;;;;15.70;78.14;92697.22;2048525;70;20074;-80
2023/05/24 08:17:33;;;;;;;;;;;;;;;16.01;74.76;92699.22;2048330;70;20499;-78
2023/05/24 08:19:58;;;;;;;;;;;;;;;16.14;74.58;92697.59;2047819;70;20055;-78
2023/05/24 08:22:23;;;;;;;;;;;;;;;16.12;75.66;92703.19;2048330;70;20047;-76
2023/05/24 08:24:49;;;;;;;;;;;;;;;16.20;74.99;92701.41;2048390;70;20050;-76
2023/05/24 08:27:15;;;;;;;;;;;;;;;16.25;74.87;92703.03;2048183;70;20102;-77
2023/05/24 08:29:40;;;;;;;;;;;;;;;16.27;73.58;92697.44;2048367;70;20491;-76
2023/05/24 08:32:08;;;;;;;;;;;;;;;16.39;73.99;92696.44;2048246;70;20091;-76
2023/05/24 08:34:35;;;;;;;;;;;;;;;16.51;74.57;92703.34;2047600;70;20055;-76
2023/05/24 08:37:01;;;;;;;;;;;;;;;16.62;72.83;92701.59;2048186;70;20051;-76
2023/05/24 08:39:26;;;;;;;;;;;;;;;16.64;73.03;92700.97;2048266;70;20079;-77
2023/05/24 08:41:52;;;;;;;;;;;;;;;16.60;72.65;92695.13;2047610;70;20062;-77
2023/05/24 08:44:19;;;;;;;;;;;;;;;16.61;71.69;92693.75;2048020;70;20051;-77
2023/05/24 08:46:45;;;;;;;;;;;;;;;16.67;73.61;92694.69;2048257;70;20055;-77
2023/05/24 08:49:12;;;;;;;;;;;;;;;16.40;73.76;92684.44;2048115;70;20047;-77
2023/05/24 08:51:39;;;;;;;;;;;;;;;16.51;72.91;92699.75;2048166;70;20051;-76
2023/05/24 08:54:05;;;;;;;;;;;;;;;16.25;74.02;92693.78;2048194;70;20484;-77
2023/05/24 08:56:31;;;;;;;;;;;;;;;16.48;73.78;92701.78;2048164;70;20097;-77
2023/05/24 08:58:57;;;;;;;;;;;;;;;16.40;73.62;92697.91;2048257;70;20154;-76
2023/05/24 09:01:23;;;;;;;;;;;;;;;16.73;72.45;92697.09;2047505;70;20066;-77
2023/05/24 09:03:49;;;;;;;;;;;;;;;16.93;72.55;92700.69;2047494;70;20074;-76
2023/05/24 09:06:16;;;;;;;;;;;;;;;17.11;71.69;92699.91;2048256;70;20522;-77
2023/05/24 09:08:42;;;;;;;;;;;;;;;17.00;71.83;92693.84;2048039;70;20058;-76
2023/05/24 09:11:07;;;;;;;;;;;;;;;17.26;69.82;92696.19;2048177;70;20070;-76
2023/05/24 09:13:34;;;;;;;;;;;;;;;17.24;70.01;92698.97;2047883;70;20054;-76
2023/05/24 09:15:59;;;;;;;;;;;;;;;17.46;70.88;92699.75;2048033;70;20058;-77
2023/05/24 09:18:25;;;;;;;;;;;;;;;17.51;69.09;92700.63;2048322;70;20055;-77
2023/05/24 09:20:50;;;;;;;;;;;;;;;17.69;69.04;92709.06;2048199;70;20321;-77
2023/05/24 09:23:17;;;;;;;;;;;;;;;17.64;68.65;92701.75;2048094;70;20419;-81
2023/05/24 09:25:46;;;;;;;;;;;;;;;17.67;68.76;92706.88;2048333;70;20442;-77
2023/05/24 09:28:14;;;;;;;;;;;;;;;17.75;67.87;92704.34;2048020;70;20079;-77
2023/05/24 09:30:44;;;;;;;;;;;;;;;17.75;66.70;92701.50;2048170;70;20043;-77
2023/05/24 09:33:11;;;;;;;;;;;;;;;17.62;66.72;92698.84;2048177;70;20439;-77
2023/05/24 09:35:37;;;;;;;;;;;;;;;17.74;68.80;92699.31;2048205;70;20496;-77
2023/05/24 09:38:05;;;;;;;;;;;;;;;17.74;69.64;92705.72;2048074;70;20198;-76
2023/05/24 09:40:30;;;;;;;;;;;;;;;17.67;67.43;92706.88;2047542;70;20051;-78
2023/05/24 09:43:07;;;;;;;;;;;;;;;17.63;66.91;92700.31;2047961;70;20194;-77
2023/05/24 09:45:37;;;;;;;;;;;;;;;17.18;68.40;92701.56;2048080;70;20154;-77
2023/05/24 09:48:09;;;;;;;;;;;;;;;17.58;68.66;92690.91;2048014;70;20055;-77
2023/05/24 09:50:34;;;;;;;;;;;;;;;17.74;68.13;92685.06;2048056;70;20059;-75
2023/05/24 09:53:01;;;;;;;;;;;;;;;17.59;67.50;92686.66;2048180;70;20507;-76
2023/05/24 09:55:26;;;;;;;;;;;;;;;17.81;68.25;92689.56;2048200;70;20058;-76
2023/05/24 09:58:03;;;;;;;;;;;;;;;18.04;66.22;92693.91;2048175;70;20055;-76
2023/05/24 10:00:29;;;;;;;;;;;;;;;17.61;67.70;92694.56;2048092;70;20067;-75
2023/05/24 10:03:08;;;;;;;;;;;;;;;17.30;67.61;92687.06;2048177;70;20047;-77
2023/05/24 10:05:40;;;;;;;;;;;;;;;17.32;67.52;92684.28;2047502;70;20505;-77
2023/05/24 10:08:07;;;;;;;;;;;;;;;16.88;71.33;92687.69;2048042;70;20039;-79
2023/05/24 10:10:33;;;;;;;;;;;;;;;17.04;70.32;92684.72;2048288;70;20054;-76
2023/05/24 10:13:00;;;;;;;;;;;;;;;17.36;69.43;92690.13;2048018;70;20047;-79
2023/05/24 10:15:26;;;;;;;;;;;;;;;16.98;72.16;92695.88;2047934;70;20121;-78
2023/05/24 10:17:52;;;;;;;;;;;;;;;17.20;69.78;92698.81;2048077;70;20048;-78
2023/05/24 10:20:18;;;;;;;;;;;;;;;17.01;70.46;92694.56;2047969;70;20055;-77
2023/05/24 10:22:45;;;;;;;;;;;;;;;16.59;71.40;92696.50;2047951;70;20150;-77
2023/05/24 10:25:16;;;;;;;;;;;;;;;16.59;69.10;92697.25;2047922;70;20489;-77
2023/05/24 10:27:42;;;;;;;;;;;;;;;16.87;69.47;92700.47;2047304;70;20121;-77
2023/05/24 10:30:13;;;;;;;;;;;;;;;16.95;69.77;92706.47;2048088;70;20059;-76
2023/05/24 10:32:41;;;;;;;;;;;;;;;17.05;69.92;92700.41;2049391;70;20047;-79
2023/05/24 10:35:07;;;;;;;;;;;;;;;16.98;68.06;92718.63;2054459;69;20427;-76
2023/05/24 10:37:33;;;;;;;;;;;;;;;17.01;69.20;92718.03;2054427;69;20090;-76
2023/05/24 10:39:58;;;;;;;;;;;;;;;16.95;68.74;92714.22;2054475;69;20154;-77
2023/05/24 10:42:25;;;;;;;;;;;;;;;16.86;69.27;92713.22;2054416;69;20217;-77
2023/05/24 10:44:51;;;;;;;;;;;;;;;17.03;69.06;92720.22;2054546;69;20062;-75
2023/05/24 10:47:18;;;;;;;;;;;;;;;17.07;69.06;92720.38;2054506;69;20128;-78
2023/05/24 10:49:47;;;;;;;;;;;;;;;17.21;67.64;92718.06;2054483;69;20049;-77
2023/05/24 10:52:12;;;;;;;;;;;;;;;17.25;68.88;92715.38;2054511;70;20049;-76
2023/05/24 10:54:38;;;;;;;;;;;;;;;17.28;69.20;92713.34;2054414;69;20046;-76
2023/05/24 10:57:05;;;;;;;;;;;;;;;17.25;69.14;92718.22;2054500;69;20057;-76
2023/05/24 10:59:36;;;;;;;;;;;;;;;17.34;69.59;92724.19;2053810;70;20502;-78
2023/05/24 11:02:15;;;;;;;;;;;;;;;17.39;68.71;92720.84;2054411;69;20054;-75
2023/05/24 11:04:42;;;;;;;;;;;;;;;17.45;68.79;92715.34;2054551;69;20523;-78
2023/05/24 11:07:12;;;;;;;;;;;;;;;17.50;70.01;92713.38;2054430;69;20169;-79
2023/05/24 11:09:58;;;;;;;;;;;;;;;17.63;69.11;92717.38;2054556;69;20106;-77
2023/05/24 11:12:30;;;;;;;;;;;;;;;17.70;68.87;92716.22;2054265;70;20097;-77
2023/05/24 11:14:56;;;;;;;;;;;;;;;17.82;67.90;92705.25;2054512;70;20054;-77
2023/05/24 11:17:22;;;;;;;;;;;;;;;17.95;67.52;92707.13;2053814;70;20065;-77
2023/05/24 11:19:52;;;;;;;;;;;;;;;18.03;67.23;92703.84;2054606;70;20050;-77
2023/05/24 11:22:21;;;;;;;;;;;;;;;18.06;66.82;92693.97;2054514;69;20114;-76
2023/05/24 11:24:47;;;;;;;;;;;;;;;18.00;65.47;92688.78;2054937;69;20070;-77
2023/05/24 11:27:13;;;;;;;;;;;;;;;17.32;67.51;92704.19;2054769;69;20050;-82
2023/05/24 11:29:45;;;;;;;;;;;;;;;17.41;67.52;92698.16;2053907;70;20043;-78
2023/05/24 11:32:31;;;;;;;;;;;;;;;17.99;66.22;92701.56;2048159;70;20490;-77
2023/05/24 11:34:56;;;;;;;;;;;;;;;17.87;65.59;92706.88;2050548;70;20496;-80
2023/05/24 11:37:22;;;;;;;;;;;;;;;17.99;66.83;92710.13;2047723;70;20062;-78
2023/05/24 11:39:53;;;;;;;;;;;;;;;17.58;67.15;92707.25;2050981;70;20129;-77
2023/05/24 11:42:21;;;;;;;;;;;;;;;17.54;67.10;92710.69;2050556;70;20177;-77
2023/05/24 11:44:47;;;;;;;;;;;;;;;18.06;66.22;92711.06;2050092;70;20059;-77
2023/05/24 11:47:12;;;;;;;;;;;;;;;18.46;65.16;92720.22;2050506;70;20131;-77
2023/05/24 11:49:39;;;;;;;;;;;;;;;18.91;64.03;92718.75;2050601;70;20051;-76
2023/05/24 11:52:06;;;;;;;;;;;;;;;18.92;63.48;92714.53;2050594;70;20446;-76
2023/05/24 11:54:32;;;;;;;;;;;;;;;18.88;64.13;92710.81;2050541;70;20164;-77
2023/05/24 11:56:57;;;;;;;;;;;;;;;18.96;63.18;92705.34;2050672;70;20090;-77
2023/05/24 11:59:24;;;;;;;;;;;;;;;18.84;63.05;92702.88;2050695;70;20117;-76
2023/05/24 12:01:56;;;;;;;;;;;;;;;18.86;62.51;92708.63;2050728;70;20051;-77
2023/05/24 12:04:22;;;;;;;;;;;;;;;18.19;64.80;92710.09;2050818;70;20110;-76
2023/05/24 12:06:47;;;;;;;;;;;;;;;18.53;64.41;92706.88;2048091;70;20082;-76
2023/05/24 12:09:14;;;;;;;;;;;;;;;18.82;64.15;92702.06;2051690;70;20105;-77
2023/05/24 12:11:40;;;;;;;;;;;;;;;18.90;64.17;92705.16;2054366;70;20431;-77
2023/05/24 12:14:10;;;;;;;;;;;;;;;18.88;63.26;92710.81;2054285;70;20082;-77
2023/05/24 12:16:35;;;;;;;;;;;;;;;18.73;63.44;92706.78;2055068;69;20054;-76
2023/05/24 12:19:01;;;;;;;;;;;;;;;18.92;62.46;92708.81;2054283;70;20046;-76
2023/05/24 12:21:29;;;;;;;;;;;;;;;17.95;66.24;92697.88;2054674;69;20117;-77
2023/05/24 12:23:54;;;;;;;;;;;;;;;17.88;65.69;92705.50;2051468;70;20078;-76
2023/05/24 12:26:21;;;;;;;;;;;;;;;17.87;66.60;92704.03;2051542;70;20090;-77
2023/05/24 12:28:52;;;;;;;;;;;;;;;17.37;68.26;92706.53;2054654;70;20125;-76
2023/05/24 12:31:18;;;;;;;;;;;;;;;17.12;69.50;92707.03;2054311;70;20054;-77
2023/05/24 12:33:43;;;;;;;;;;;;;;;17.55;68.72;92703.63;2054863;69;20046;-77
2023/05/24 12:36:09;;;;;;;;;;;;;;;17.96;66.33;92714.31;2054869;69;20053;-76
2023/05/24 12:38:34;;;;;;;;;;;;;;;17.64;67.32;92711.06;2054756;69;20042;-76
2023/05/24 12:41:00;;;;;;;;;;;;;;;17.78;66.58;92703.03;2055004;70;20053;-76
2023/05/24 12:43:25;;;;;;;;;;;;;;;18.13;66.79;92712.72;2054752;69;20046;-76
2023/05/24 12:45:51;;;;;;;;;;;;;;;17.80;67.22;92713.03;2056992;69;20090;-76
2023/05/24 12:48:17;;;;;;;;;;;;;;;17.95;66.91;92712.81;2054873;69;20050;-77